createdAt,value
2019-02-26T16:14:41.847Z,20.80
2019-02-26T16:17:11.828Z,37.70
2019-02-26T16:19:43.640Z,21.03
2019-02-26T16:22:14.043Z,23.43
2019-02-26T16:24:44.277Z,30.60
2019-02-26T16:27:14.785Z,21.33
2019-02-26T16:29:44.879Z,31.53
2019-02-26T16:32:15.075Z,24.93
2019-02-26T16:34:45.264Z,26.43
2019-02-26T16:37:15.375Z,22.73
2019-02-26T16:39:45.672Z,25.07
2019-02-26T16:42:15.803Z,23.47
2019-02-26T16:44:45.925Z,24.47
2019-02-26T16:47:16.168Z,25.17
2019-02-26T16:49:46.368Z,29.13
2019-02-26T16:52:16.535Z,20.33
2019-02-26T16:54:46.667Z,21.63
2019-02-26T16:57:16.820Z,21.00
2019-02-26T16:59:46.983Z,25.63
2019-02-26T17:02:17.795Z,32.13
2019-02-26T17:04:47.958Z,31.43
2019-02-26T17:07:18.140Z,32.13
2019-02-26T17:09:48.263Z,25.07
2019-02-26T17:12:18.071Z,31.40
2019-02-26T17:14:50.564Z,29.03
2019-02-26T17:17:20.250Z,44.87
2019-02-26T17:19:50.491Z,29.83
2019-02-26T17:22:20.611Z,29.80
2019-02-26T17:24:53.380Z,29.40
2019-02-26T17:27:22.507Z,28.67
2019-02-26T17:29:52.574Z,27.37
2019-02-26T17:32:22.567Z,34.17
2019-02-26T17:34:53.740Z,40.50
2019-02-26T17:37:24.273Z,30.10
2019-02-26T17:40:05.649Z,30.67
2019-02-26T17:42:35.614Z,33.43
2019-02-26T17:45:06.377Z,31.80
2019-02-26T17:47:36.471Z,36.10
2019-02-26T17:50:09.669Z,30.17
2019-02-26T17:52:39.413Z,35.83
2019-02-26T17:55:10.001Z,30.13
2019-02-26T17:57:40.558Z,36.20
2019-02-26T18:00:12.294Z,31.47
2019-02-26T18:02:42.426Z,33.97
2019-02-26T18:05:12.850Z,38.80
2019-02-26T18:07:42.947Z,32.73
2019-02-26T18:10:14.595Z,28.67
2019-02-26T18:12:44.798Z,34.30
2019-02-26T18:15:17.641Z,32.33
2019-02-26T18:17:46.950Z,25.33
2019-02-26T18:20:18.505Z,35.20
2019-02-26T18:22:48.723Z,34.67
2019-02-26T18:25:18.934Z,31.87
2019-02-26T18:27:48.700Z,28.23
2019-02-26T18:30:20.185Z,31.87
2019-02-26T18:32:53.153Z,38.43
2019-02-26T18:35:22.059Z,32.13
2019-02-26T18:37:52.215Z,30.50
2019-02-26T18:40:22.455Z,31.30
2019-02-26T18:42:52.552Z,34.00
2019-02-26T18:45:27.421Z,29.70
2019-02-26T18:47:56.191Z,35.80
2019-02-26T18:50:28.592Z,41.10
2019-02-26T18:52:58.574Z,36.90
2019-02-26T18:55:32.332Z,31.33
2019-02-26T18:58:00.536Z,33.47
2019-02-26T19:00:31.659Z,35.77
2019-02-26T19:03:01.857Z,34.10
2019-02-26T19:05:31.918Z,28.07
2019-02-26T19:08:05.498Z,31.83
2019-02-26T19:10:33.843Z,26.43
2019-02-26T19:13:03.954Z,25.10
2019-02-26T19:15:33.911Z,32.17
2019-02-26T19:18:03.955Z,23.33
2019-02-26T19:20:34.191Z,31.13
2019-02-26T19:23:04.397Z,26.50
2019-02-26T19:25:34.519Z,24.00
2019-02-26T19:28:04.689Z,28.13
2019-02-26T19:30:36.998Z,35.13
2019-02-26T19:33:06.548Z,27.63
2019-02-26T19:35:40.348Z,23.73
2019-02-26T19:38:08.598Z,21.27
2019-02-26T19:40:40.396Z,23.53
2019-02-26T19:43:10.507Z,24.10
2019-02-26T19:45:44.014Z,18.50
2019-02-26T19:48:12.587Z,18.60
2019-02-26T19:50:45.450Z,24.40
2019-02-26T19:53:15.387Z,30.03
2019-02-26T19:55:48.826Z,24.67
2019-02-26T19:58:17.294Z,40.00
2019-02-26T20:00:47.474Z,31.53
2019-02-26T20:03:17.451Z,21.30
2019-02-26T20:05:47.583Z,22.63
2019-02-26T20:08:17.435Z,25.80
2019-02-26T20:10:49.119Z,26.37
2019-02-26T20:13:19.193Z,103.07
2019-02-26T20:15:49.347Z,168.70
2019-02-26T20:18:20.938Z,62.77
2019-02-26T20:20:50.853Z,32.77
2019-02-26T20:23:21.080Z,22.43
2019-02-26T20:25:51.306Z,30.60
2019-02-26T20:28:21.494Z,21.73
2019-02-26T20:30:51.234Z,21.20
2019-02-26T20:33:21.436Z,13.23
2019-02-26T20:35:51.659Z,25.37
2019-02-26T20:38:21.826Z,26.10
2019-02-26T20:40:51.880Z,14.37
2019-02-26T20:43:22.064Z,14.30
2019-02-26T20:45:52.180Z,11.47
2019-02-26T20:48:22.266Z,14.20
2019-02-26T20:50:53.752Z,24.37
2019-02-26T20:53:24.283Z,18.30
2019-02-26T20:55:57.454Z,25.82
2019-02-26T20:58:26.248Z,11.93
2019-02-26T21:00:58.602Z,12.57
2019-02-26T21:03:28.035Z,12.63
2019-02-26T21:05:58.196Z,13.30
2019-02-26T21:08:30.738Z,12.20
2019-02-26T21:11:00.099Z,12.00
2019-02-26T21:13:30.199Z,12.23
2019-02-26T21:16:00.399Z,7.70
2019-02-26T21:18:31.403Z,10.63
2019-02-26T21:21:01.936Z,13.27
2019-02-26T21:23:32.600Z,9.03
2019-02-26T21:26:02.755Z,9.90
2019-02-26T21:28:33.738Z,9.78
2019-02-26T21:31:04.623Z,10.98
2019-02-26T21:33:34.575Z,9.60
2019-02-26T21:36:04.807Z,10.17
2019-02-26T21:38:38.559Z,12.07
2019-02-26T21:41:06.646Z,11.05
2019-02-26T21:43:36.893Z,10.98
2019-02-26T21:46:06.808Z,11.15
2019-02-26T21:48:37.275Z,11.95
2019-02-26T21:51:07.364Z,8.28
2019-02-26T21:53:37.475Z,12.60
2019-02-26T21:56:07.731Z,11.65
2019-02-26T21:58:37.691Z,10.38
2019-02-26T22:01:11.482Z,11.70
2019-02-26T22:03:39.583Z,13.95
2019-02-26T22:06:11.037Z,12.13
2019-02-26T22:08:41.787Z,22.30
2019-02-26T22:11:12.172Z,9.48
2019-02-26T22:13:42.363Z,9.35
2019-02-26T22:16:14.907Z,8.40
2019-02-26T22:18:44.304Z,13.95
2019-02-26T22:21:14.468Z,11.30
2019-02-26T22:23:44.619Z,9.70
2019-02-26T22:26:14.760Z,10.30
2019-02-26T22:28:44.948Z,10.70
2019-02-26T22:31:15.076Z,7.78
2019-02-26T22:33:46.370Z,8.53
2019-02-26T22:36:16.704Z,10.32
2019-02-26T22:38:49.158Z,11.15
2019-02-26T22:41:18.446Z,10.15
2019-02-26T22:43:48.539Z,10.18
2019-02-26T22:46:18.522Z,11.03
2019-02-26T22:48:48.651Z,12.37
2019-02-26T22:51:18.799Z,10.63
2019-02-26T22:53:48.759Z,11.33
2019-02-26T22:56:18.896Z,11.93
2019-02-26T22:58:48.783Z,11.95
2019-02-26T23:01:42.999Z,9.15
2019-02-26T23:04:13.203Z,13.15
2019-02-26T23:06:43.361Z,11.50
2019-02-26T23:09:17.908Z,10.15
2019-02-26T23:11:48.511Z,9.38
2019-02-26T23:14:18.963Z,12.15
2019-02-26T23:16:51.881Z,9.48
2019-02-26T23:19:21.335Z,9.63
2019-02-26T23:21:51.660Z,11.08
2019-02-26T23:24:21.688Z,9.83
2019-02-26T23:26:52.718Z,9.45
2019-02-26T23:29:22.939Z,11.53
2019-02-26T23:31:53.379Z,8.43
2019-02-26T23:34:23.475Z,6.78
2019-02-26T23:36:53.752Z,8.78
2019-02-26T23:39:24.471Z,8.55
2019-02-26T23:41:54.619Z,8.23
2019-02-26T23:44:24.788Z,7.25
2019-02-26T23:46:55.012Z,10.15
2019-02-26T23:49:25.207Z,9.80
2019-02-26T23:51:55.232Z,9.45
2019-02-26T23:54:25.459Z,11.15
2019-02-26T23:56:57.288Z,10.05
2019-02-26T23:59:28.513Z,9.55
